Terminal Aerodrome Forecast
Issued by NWS Omaha/Valley, NE

Home | Current Version | Previous Version | Text Only | Print | Product List | Glossary Off
Versions: 1 2 3 4 5 6 7 8 9 10 11 12 13 14 15 16 17 18 19 20 21 22 23 24 25 26 27 28 29 30 31 32

000
FTUS43 KOAX 230013 AAA
TAFOFK
TAF AMD
KOFK 230013Z 2300/2324 36015G23KT P6SM BKN070
     FM230200 36012KT P6SM SCT100 SCT250
     FM230600 34005KT P6SM FEW250
     FM231100 32010KT P6SM SCT200
     FM231500 32015G23KT P6SM BKN120=

USA.gov is the U.S. government's official web portal to all federal, state and local government web resources and services.